Time;durP1;ratioP1;P1;durP2;ratioP2;P2;SDS_P1;SDS_P2;PMS_P1;PMS_P2;Temp;Humidity;BMP_temperature;BMP_pressure;BME280_temperature;BME280_humidity;BME280_pressure;Samples;Min_cycle;Max_cycle;Signal;HPM_P1;HPM_P2
2022/01/23 00:01:36;;;;;;;10.30;3.90;;;;;;;8.58;68.88;103023.13;4970043;28;100626;-52
2022/01/23 00:04:03;;;;;;;4.30;3.70;;;;;;;8.59;68.82;103027.41;4983768;28;97201;-52
2022/01/23 00:06:29;;;;;;;4.77;3.70;;;;;;;8.57;68.85;103034.50;4980655;28;97107;-51
2022/01/23 00:08:56;;;;;;;7.50;4.37;;;;;;;8.54;68.83;103032.63;4982476;28;97224;-51
2022/01/23 00:11:26;;;;;;;4.67;4.10;;;;;;;8.55;69.07;103031.41;4981498;28;98759;-51
2022/01/23 00:19:11;;;;;;;6.77;4.20;;;;;;;8.54;68.95;103019.66;4984157;28;97127;-51
2022/01/23 00:21:39;;;;;;;5.77;4.10;;;;;;;8.55;68.89;103025.94;4977748;22;97686;-52
2022/01/23 00:32:08;;;;;;;12.83;5.53;;;;;;;8.46;69.03;103026.47;4944639;28;101388;-52
2022/01/23 00:34:36;;;;;;;7.30;4.50;;;;;;;8.46;68.96;103026.47;4943434;28;97900;-52
2022/01/23 00:37:03;;;;;;;8.00;4.63;;;;;;;8.45;68.99;103011.22;4946493;28;98692;-57
2022/01/23 00:39:30;;;;;;;8.73;4.50;;;;;;;8.45;69.16;103016.72;4945757;28;97541;-51
2022/01/23 00:41:57;;;;;;;7.93;4.70;;;;;;;8.44;69.05;103015.16;4944146;28;97187;-51
2022/01/23 00:44:26;;;;;;;5.93;4.67;;;;;;;8.43;69.01;103016.34;4943385;28;97213;-51
2022/01/23 00:46:54;;;;;;;6.50;4.77;;;;;;;8.40;68.90;103011.72;4944872;28;96995;-51
2022/01/23 00:49:26;;;;;;;6.93;4.77;;;;;;;8.39;68.95;103012.13;4957671;28;96856;-52
2022/01/23 00:51:54;;;;;;;5.60;4.63;;;;;;;8.36;68.86;103018.44;4942221;28;96904;-52
2022/01/23 00:54:23;;;;;;;11.27;5.43;;;;;;;8.35;68.96;103014.16;4943746;28;97333;-52
2022/01/23 00:56:50;;;;;;;9.13;5.03;;;;;;;8.32;68.98;103016.53;4944825;28;98151;-52
2022/01/23 00:59:17;;;;;;;6.77;5.03;;;;;;;8.34;69.01;103021.63;4944914;28;97720;-51
2022/01/23 01:01:44;;;;;;;7.77;4.30;;;;;;;8.35;69.06;103025.91;4940368;28;97004;-51
2022/01/23 01:04:11;;;;;;;5.00;4.37;;;;;;;8.38;69.11;103027.03;4942669;28;97171;-52
2022/01/23 01:06:38;;;;;;;6.03;4.47;;;;;;;8.41;69.09;103028.94;4942309;28;98421;-52
2022/01/23 01:09:07;;;;;;;6.33;4.50;;;;;;;8.44;69.15;103034.34;4940921;28;97364;-52
2022/01/23 01:33:00;;;;;;;5.50;4.70;;;;;;;8.58;69.10;103031.38;4941264;28;101852;-51
2022/01/23 01:35:43;;;;;;;6.33;5.13;;;;;;;8.57;69.05;103038.03;4940517;28;101693;-52
2022/01/23 01:38:11;;;;;;;8.57;4.17;;;;;;;8.58;69.04;103034.13;4943560;28;97537;-52
2022/01/23 01:40:38;;;;;;;7.47;5.40;;;;;;;8.60;69.10;103039.19;4941332;28;104263;-52
2022/01/23 01:43:06;;;;;;;9.33;5.63;;;;;;;8.59;69.08;103037.59;4943116;28;97734;-52
2022/01/23 01:45:34;;;;;;;6.60;4.70;;;;;;;8.61;69.12;103036.00;4946152;28;98205;-52
2022/01/23 01:48:03;;;;;;;5.53;4.40;;;;;;;8.61;69.21;103049.72;4941461;28;97055;-52
2022/01/23 01:50:33;;;;;;;7.00;4.90;;;;;;;8.61;69.17;103049.72;4943397;28;97162;-52
2022/01/23 01:53:01;;;;;;;5.67;4.90;;;;;;;8.62;69.16;103045.78;4943202;28;97646;-52
2022/01/23 01:55:37;;;;;;;5.57;4.87;;;;;;;8.62;69.20;103045.78;4941385;28;97224;-52
2022/01/23 01:58:12;;;;;;;6.10;4.63;;;;;;;8.64;69.26;103048.88;4942896;28;97635;-52
2022/01/23 02:00:54;;;;;;;5.97;4.67;;;;;;;8.64;69.16;103054.38;4943635;28;97064;-51
2022/01/23 02:08:54;;;;;;;7.83;5.53;;;;;;;8.68;69.15;103062.53;4942045;28;97149;-51
2022/01/23 02:11:50;;;;;;;7.57;5.07;;;;;;;8.69;69.20;103056.63;4939160;28;98573;-51
2022/01/23 02:15:11;;;;;;;6.33;4.10;;;;;;;8.70;69.10;103046.41;4940635;28;100381;-52
2022/01/23 02:55:14;;;;;;;5.87;4.80;;;;;;;8.69;69.29;103031.91;4944601;28;96800;-52
2022/01/23 03:00:17;;;;;;;7.40;5.27;;;;;;;8.73;69.28;103037.34;4945907;28;97329;-51
2022/01/23 03:02:47;;;;;;;6.50;4.80;;;;;;;8.72;69.25;103035.78;4944596;28;97555;-52
2022/01/23 03:08:57;;;;;;;8.40;4.80;;;;;;;8.72;69.60;103041.28;4945512;28;96645;-52
2022/01/23 03:10:46;;;;;;;8.20;4.97;;;;;;;8.73;69.23;103045.59;4943540;28;100249;-51
2022/01/23 03:13:40;;;;;;;8.90;4.90;;;;;;;8.74;69.30;103053.41;4944125;28;97181;-51
2022/01/23 03:29:57;;;;;;;5.60;4.63;;;;;;;8.70;69.32;103033.47;4942689;28;97282;-52
2022/01/23 03:34:53;;;;;;;8.20;5.37;;;;;;;8.68;69.30;103022.16;4943015;28;96937;-52
2022/01/23 03:37:20;;;;;;;6.40;5.00;;;;;;;8.69;69.35;103029.16;4942275;28;96942;-52
2022/01/23 03:39:47;;;;;;;9.90;6.07;;;;;;;8.68;69.29;103024.13;4943947;28;97237;-53
2022/01/23 03:42:14;;;;;;;6.53;4.60;;;;;;;8.68;69.40;103030.38;4943592;28;97656;-52
2022/01/23 03:44:52;;;;;;;9.83;5.37;;;;;;;8.69;69.39;103037.41;4944265;28;97143;-52
2022/01/23 03:47:36;;;;;;;13.23;5.47;;;;;;;8.68;69.41;103049.59;4944466;28;97134;-54
2022/01/23 03:50:06;;;;;;;11.70;6.30;;;;;;;8.69;69.29;103034.66;4944575;28;96869;-52
2022/01/23 03:52:33;;;;;;;9.70;6.63;;;;;;;8.70;69.27;103033.47;4945008;28;97152;-52
2022/01/23 03:55:04;;;;;;;9.37;6.10;;;;;;;8.69;69.41;103031.16;4944805;28;97146;-52
2022/01/23 03:57:31;;;;;;;16.33;6.77;;;;;;;8.70;69.51;103038.97;4943186;28;96848;-52
2022/01/23 03:59:59;;;;;;;10.90;7.47;;;;;;;8.71;69.38;103035.03;4939641;28;97537;-52
2022/01/23 04:02:26;;;;;;;12.63;7.23;;;;;;;8.70;69.44;103038.97;4945676;28;98024;-52
2022/01/23 04:04:54;;;;;;;10.60;5.97;;;;;;;8.72;69.44;103044.03;4943643;28;97846;-51
2022/01/23 04:07:27;;;;;;;11.53;6.80;;;;;;;8.72;69.37;103042.06;4944948;28;97379;-51
2022/01/23 04:09:55;;;;;;;10.37;6.10;;;;;;;8.72;69.33;103044.81;4943580;28;97425;-52
2022/01/23 04:15:32;;;;;;;10.87;6.30;;;;;;;8.72;69.58;103042.06;4943452;28;96985;-51
2022/01/23 04:18:49;;;;;;;7.67;6.07;;;;;;;8.72;69.47;103044.03;4945414;28;98003;-51
2022/01/23 04:34:36;;;;;;;7.80;5.80;;;;;;;8.70;69.59;103060.13;4943459;28;96877;-51
2022/01/23 04:45:40;;;;;;;9.67;5.57;;;;;;;8.65;69.61;103058.66;4945032;28;101418;-52
2022/01/23 05:04:31;;;;;;;8.03;4.93;;;;;;;8.67;69.43;103061.75;4943824;28;97112;-52
2022/01/23 05:07:07;;;;;;;6.50;5.07;;;;;;;8.69;69.59;103066.84;4943025;28;101559;-56
2022/01/23 05:09:35;;;;;;;7.10;4.77;;;;;;;8.69;69.39;103070.34;4947411;28;97274;-52
2022/01/23 05:12:06;;;;;;;9.10;5.50;;;;;;;8.68;69.50;103077.03;4943388;28;96999;-52
2022/01/23 05:14:40;;;;;;;8.20;5.30;;;;;;;8.70;69.72;103080.13;4941565;28;101903;-52
2022/01/23 05:17:10;;;;;;;7.63;5.20;;;;;;;8.71;69.59;103083.66;4958298;28;101816;-53
2022/01/23 05:19:39;;;;;;;5.70;3.80;;;;;;;8.72;69.66;103072.25;4939847;28;97486;-52
2022/01/23 05:24:42;;;;;;;8.80;4.53;;;;;;;8.72;69.60;103072.25;4940079;28;100690;-52
2022/01/23 05:27:10;;;;;;;6.63;4.67;;;;;;;8.74;69.53;103069.09;4943840;28;101597;-52
2022/01/23 05:29:38;;;;;;;6.10;4.57;;;;;;;8.73;69.57;103071.06;4942529;28;96762;-52
2022/01/23 05:32:09;;;;;;;5.23;4.30;;;;;;;8.73;69.50;103068.31;4944946;28;97819;-53
2022/01/23 05:34:37;;;;;;;6.83;4.27;;;;;;;8.67;69.50;103053.53;4942375;28;96851;-53
2022/01/23 05:37:04;;;;;;;5.93;4.30;;;;;;;8.67;69.61;103064.50;4942749;28;100177;-52
2022/01/23 05:39:33;;;;;;;6.57;4.23;;;;;;;8.68;69.63;103066.06;4941993;28;96870;-52
2022/01/23 05:42:09;;;;;;;7.03;4.57;;;;;;;8.71;69.69;103067.19;4940586;28;97016;-54
2022/01/23 05:44:38;;;;;;;5.77;4.13;;;;;;;8.71;69.68;103072.69;4941243;28;97586;-53
2022/01/23 05:47:07;;;;;;;5.03;4.53;;;;;;;8.74;69.49;103069.09;4940825;28;97215;-52
2022/01/23 05:49:35;;;;;;;5.40;4.47;;;;;;;8.72;69.68;103080.50;4938392;28;97046;-54
2022/01/23 05:52:05;;;;;;;9.33;5.30;;;;;;;8.74;69.54;103093.78;4943858;28;97134;-53
2022/01/23 05:54:34;;;;;;;5.73;4.50;;;;;;;8.77;69.43;103079.22;4940306;28;97534;-52
2022/01/23 05:57:02;;;;;;;5.43;4.10;;;;;;;8.79;69.53;103085.06;4941936;28;96927;-53
2022/01/23 05:59:30;;;;;;;4.70;4.20;;;;;;;8.76;69.51;103094.91;4944868;28;96839;-54
2022/01/23 06:01:58;;;;;;;5.27;4.67;;;;;;;8.74;69.70;103094.56;4940963;28;96947;-51
2022/01/23 06:04:26;;;;;;;6.10;4.40;;;;;;;8.73;69.69;103095.78;4940220;28;97335;-53
2022/01/23 06:06:56;;;;;;;4.43;4.03;;;;;;;8.75;69.52;103092.59;4942628;28;97110;-54
2022/01/23 06:09:24;;;;;;;6.13;4.87;;;;;;;8.74;69.68;103097.31;4940550;28;100813;-56
2022/01/23 06:11:51;;;;;;;4.53;4.13;;;;;;;8.76;69.63;103099.63;4939882;28;96765;-51
2022/01/23 06:14:20;;;;;;;7.30;4.40;;;;;;;8.77;69.73;103099.22;4939481;28;97199;-53
2022/01/23 06:16:48;;;;;;;6.47;4.27;;;;;;;8.78;69.64;103105.50;4945996;28;97083;-53
2022/01/23 06:19:15;;;;;;;5.10;4.60;;;;;;;8.78;69.53;103117.22;4946290;28;96876;-50
2022/01/23 06:21:43;;;;;;;4.60;4.17;;;;;;;8.79;69.54;103107.81;4943645;28;96894;-53
2022/01/23 06:24:21;;;;;;;9.00;4.73;;;;;;;8.77;69.51;103114.91;4944771;28;97033;-53
2022/01/23 06:26:54;;;;;;;7.00;4.47;;;;;;;8.79;69.58;103112.53;4947026;28;98016;-53
2022/01/23 06:29:23;;;;;;;5.27;4.30;;;;;;;8.76;69.60;103114.13;4944752;28;97001;-53
2022/01/23 06:31:53;;;;;;;7.67;5.37;;;;;;;8.77;69.68;103115.69;4943025;28;97215;-54
2022/01/23 06:34:20;;;;;;;5.20;4.33;;;;;;;8.78;69.50;103121.97;4945110;28;96817;-54
2022/01/23 06:36:52;;;;;;;6.93;3.93;;;;;;;8.77;69.62;103118.44;4945851;28;97139;-53
2022/01/23 06:39:20;;;;;;;6.00;4.63;;;;;;;8.79;69.56;103126.25;4945742;28;97205;-51
2022/01/23 06:41:48;;;;;;;7.63;4.30;;;;;;;8.80;69.62;103116.81;4946489;28;97140;-52
2022/01/23 06:44:15;;;;;;;7.10;4.10;;;;;;;8.82;69.51;103123.44;4942155;28;97747;-53
2022/01/23 06:46:41;;;;;;;8.87;5.50;;;;;;;8.82;69.42;103134.41;4944280;28;96905;-52
2022/01/23 06:49:10;;;;;;;7.00;4.43;;;;;;;8.84;69.56;103128.50;4944808;28;97859;-53
2022/01/23 06:51:38;;;;;;;5.27;4.77;;;;;;;8.81;69.63;103127.38;4944651;28;97476;-53
2022/01/23 06:54:05;;;;;;;5.40;4.40;;;;;;;8.82;69.65;103131.66;4942070;28;99878;-53
2022/01/23 06:56:32;;;;;;;5.67;4.47;;;;;;;8.84;69.62;103123.03;4943158;28;97902;-54
2022/01/23 06:58:59;;;;;;;5.60;4.07;;;;;;;8.84;69.59;103128.50;4941800;28;96903;-54
2022/01/23 07:01:26;;;;;;;11.10;4.30;;;;;;;8.86;69.58;103126.13;4945582;28;96934;-53
2022/01/23 07:03:54;;;;;;;6.00;4.20;;;;;;;8.86;69.68;103132.41;4944397;28;97591;-54
2022/01/23 07:06:21;;;;;;;4.40;3.80;;;;;;;8.87;69.65;103133.16;4944926;28;96818;-51
2022/01/23 07:08:48;;;;;;;5.07;3.93;;;;;;;8.84;69.64;103123.81;4945709;28;96912;-54
2022/01/23 07:11:15;;;;;;;4.60;4.20;;;;;;;8.87;69.51;103130.41;4947297;28;96965;-54
2022/01/23 07:13:42;;;;;;;5.60;5.10;;;;;;;8.84;69.57;103125.78;4943667;28;102860;-54
2022/01/23 07:16:09;;;;;;;5.67;5.10;;;;;;;8.83;69.56;103115.97;4940938;28;96798;-54
2022/01/23 07:18:35;;;;;;;4.87;4.10;;;;;;;8.83;69.63;103126.94;4944621;28;97997;-52
2022/01/23 07:21:02;;;;;;;5.70;4.60;;;;;;;8.81;69.88;103124.63;4946456;28;96758;-52
2022/01/23 07:23:29;;;;;;;6.33;5.00;;;;;;;8.83;69.64;103126.94;4942609;28;97493;-54
2022/01/23 07:25:56;;;;;;;6.43;4.33;;;;;;;8.84;69.71;103123.81;4943041;28;97295;-53
2022/01/23 07:28:31;;;;;;;7.10;5.27;;;;;;;8.86;69.77;103126.13;4946749;28;96707;-53
2022/01/23 07:31:03;;;;;;;6.83;4.33;;;;;;;8.85;69.66;103128.09;4944105;28;97219;-52
2022/01/23 07:33:30;;;;;;;6.57;4.77;;;;;;;8.87;69.59;103133.94;4942693;28;100597;-51
2022/01/23 07:35:57;;;;;;;5.57;4.27;;;;;;;8.86;69.69;103140.63;4945423;28;97128;-52
2022/01/23 07:38:23;;;;;;;4.63;4.00;;;;;;;8.88;69.71;103145.69;4944678;28;97326;-54
2022/01/23 07:40:53;;;;;;;6.23;4.10;;;;;;;8.87;69.70;103144.91;4946479;28;96958;-54
2022/01/23 07:43:19;;;;;;;5.70;4.40;;;;;;;8.87;69.89;103150.41;4943266;28;97409;-53
2022/01/23 07:45:46;;;;;;;5.20;4.00;;;;;;;8.88;69.72;103151.97;4944486;28;96883;-56
2022/01/23 07:48:13;;;;;;;4.90;4.10;;;;;;;8.93;69.67;103164.44;4947625;28;97429;-52
2022/01/23 07:50:40;;;;;;;4.60;4.03;;;;;;;8.95;69.63;103162.03;4943044;28;97413;-54
2022/01/23 07:53:07;;;;;;;9.50;7.50;;;;;;;8.97;69.52;103176.13;4942350;28;97747;-53
2022/01/23 07:55:34;;;;;;;6.60;5.90;;;;;;;8.99;69.60;103176.47;4943866;28;97217;-54
2022/01/23 07:58:12;;;;;;;5.60;4.77;;;;;;;8.95;69.80;103176.53;4942153;28;97252;-54
2022/01/23 08:00:40;;;;;;;5.30;4.80;;;;;;;8.97;69.90;103178.88;4944881;28;96740;-53
2022/01/23 08:03:07;;;;;;;5.30;4.80;;;;;;;8.99;69.70;103191.00;4941667;28;97271;-54
2022/01/23 08:05:34;;;;;;;5.40;4.10;;;;;;;9.02;69.78;103179.16;4943501;28;96703;-55
2022/01/23 08:08:00;;;;;;;4.33;3.67;;;;;;;9.01;69.67;103185.84;4944648;28;96635;-51
2022/01/23 08:10:27;;;;;;;6.13;4.40;;;;;;;9.03;69.75;103188.16;4942434;28;97396;-53
2022/01/23 08:12:54;;;;;;;6.43;4.43;;;;;;;9.06;69.63;103199.09;4944276;28;96870;-53
2022/01/23 08:15:21;;;;;;;5.30;4.30;;;;;;;9.09;69.67;103197.47;4943468;28;97147;-54
2022/01/23 08:17:48;;;;;;;5.83;4.60;;;;;;;9.09;69.69;103199.47;4942716;28;97005;-54
2022/01/23 08:20:15;;;;;;;5.30;4.20;;;;;;;9.09;69.61;103196.72;4945340;28;96769;-52
2022/01/23 08:22:43;;;;;;;4.87;4.40;;;;;;;9.11;69.58;103206.06;4943899;28;102290;-54
2022/01/23 08:25:10;;;;;;;7.80;5.20;;;;;;;9.12;69.54;103204.09;4945898;28;97213;-51
2022/01/23 08:27:37;;;;;;;5.60;4.73;;;;;;;9.15;69.67;103214.25;4942944;28;97043;-54
2022/01/23 08:30:04;;;;;;;6.10;4.27;;;;;;;9.17;69.64;103211.88;4943937;28;96995;-54
2022/01/23 08:32:31;;;;;;;5.33;4.83;;;;;;;9.18;69.65;103219.69;4940516;28;96817;-53
2022/01/23 08:34:58;;;;;;;5.40;4.17;;;;;;;9.18;69.59;103213.41;4944204;28;97181;-54
2022/01/23 08:37:25;;;;;;;9.03;4.37;;;;;;;9.20;69.66;103213.75;4942138;28;96877;-53
2022/01/23 08:39:51;;;;;;;5.00;4.50;;;;;;;9.19;69.60;103214.97;4939255;28;96840;-53
2022/01/23 08:42:18;;;;;;;6.37;4.60;;;;;;;9.22;69.64;103219.63;4943221;28;98003;-54
2022/01/23 08:44:47;;;;;;;4.90;4.40;;;;;;;9.24;69.70;103217.25;4941358;28;97277;-54
2022/01/23 08:47:14;;;;;;;5.30;4.57;;;;;;;9.24;69.70;103219.97;4947013;28;97153;-53
2022/01/23 08:49:45;;;;;;;5.13;4.63;;;;;;;9.27;69.61;103219.13;4943505;28;96778;-53
2022/01/23 08:52:16;;;;;;;6.60;5.17;;;;;;;9.27;69.73;103227.38;4944027;28;101576;-53
2022/01/23 08:54:49;;;;;;;9.97;4.97;;;;;;;9.28;69.66;103228.94;4942986;28;101333;-52
2022/01/23 08:57:17;;;;;;;7.53;5.30;;;;;;;9.28;69.72;103226.19;4940511;28;96991;-54
2022/01/23 08:59:43;;;;;;;8.90;6.13;;;;;;;9.31;69.62;103222.56;4940212;28;97017;-52
2022/01/23 09:02:10;;;;;;;8.30;6.40;;;;;;;9.36;69.55;103230.34;4943062;28;97424;-54
2022/01/23 09:04:37;;;;;;;6.80;6.10;;;;;;;9.37;69.60;103226.41;4940753;28;97285;-54
2022/01/23 09:07:04;;;;;;;6.40;5.53;;;;;;;9.37;69.55;103227.16;4943906;28;97122;-53
2022/01/23 09:09:37;;;;;;;7.10;5.60;;;;;;;9.40;69.74;103231.06;4939608;28;97194;-54
2022/01/23 09:12:26;;;;;;;6.13;5.47;;;;;;;9.43;69.64;103230.22;4943410;28;97452;-53
2022/01/23 09:14:52;;;;;;;5.87;5.27;;;;;;;9.46;69.72;103229.34;4944889;28;97384;-53
2022/01/23 09:17:18;;;;;;;7.93;6.17;;;;;;;9.50;69.67;103232.84;4940640;28;97062;-51
2022/01/23 09:19:47;;;;;;;6.20;5.07;;;;;;;9.52;69.60;103224.94;4942077;28;96803;-53
2022/01/23 09:22:15;;;;;;;5.40;4.90;;;;;;;9.54;69.67;103225.28;4944156;28;97091;-54
2022/01/23 09:24:42;;;;;;;7.40;6.10;;;;;;;9.55;69.58;103221.34;4944332;28;97160;-53
2022/01/23 09:27:18;;;;;;;7.43;5.77;;;;;;;9.56;69.67;103225.66;4946294;28;97038;-52
2022/01/23 09:29:47;;;;;;;15.87;7.97;;;;;;;9.57;69.60;103227.97;4943094;28;96991;-53
2022/01/23 09:32:16;;;;;;;8.13;6.43;;;;;;;9.61;69.62;103236.16;4944525;28;100480;-52
2022/01/23 09:34:43;;;;;;;8.77;7.40;;;;;;;9.62;69.72;103230.22;4943837;28;96982;-54
2022/01/23 09:37:15;;;;;;;9.27;6.47;;;;;;;9.65;69.62;103231.38;4944121;28;96776;-54
2022/01/23 09:39:45;;;;;;;9.30;7.70;;;;;;;9.67;69.69;103226.22;4937046;28;96929;-54
2022/01/23 09:42:26;;;;;;;7.87;6.43;;;;;;;9.70;69.59;103244.59;4943771;28;98213;-54
2022/01/23 09:45:08;;;;;;;7.70;5.43;;;;;;;9.69;69.74;103237.56;4943451;28;100487;-53
2022/01/23 09:47:37;;;;;;;7.90;5.97;;;;;;;9.71;69.76;103238.69;4942091;28;98759;-52
2022/01/23 09:50:06;;;;;;;8.07;6.23;;;;;;;9.73;69.60;103235.50;4945916;28;97350;-58
2022/01/23 09:52:35;;;;;;;6.97;6.03;;;;;;;9.74;69.73;103231.56;4947662;28;97373;-53
2022/01/23 09:55:10;;;;;;;9.10;6.50;;;;;;;9.78;69.72;103238.53;4943530;28;103604;-51
2022/01/23 09:57:41;;;;;;;6.97;5.70;;;;;;;9.82;69.71;103233.75;4949637;28;97051;-54
2022/01/23 10:00:12;;;;;;;10.97;7.73;;;;;;;9.83;69.71;103231.75;4947004;28;97155;-53
2022/01/23 10:02:39;;;;;;;12.43;9.90;;;;;;;9.83;69.69;103232.53;4944479;28;104131;-53
2022/01/23 10:05:06;;;;;;;9.07;7.97;;;;;;;9.83;69.74;103231.75;4948267;28;97192;-52
2022/01/23 10:07:41;;;;;;;7.77;6.80;;;;;;;9.86;69.96;103241.13;4944804;28;97018;-54
2022/01/23 10:10:12;;;;;;;8.73;6.17;;;;;;;9.86;69.90;103239.16;4947486;28;96804;-53
2022/01/23 10:12:43;;;;;;;9.73;5.90;;;;;;;9.89;69.83;103238.34;4946727;28;97435;-53
2022/01/23 10:15:11;;;;;;;6.10;5.20;;;;;;;9.87;69.74;103229.75;4945229;28;97267;-52
2022/01/23 10:17:39;;;;;;;7.53;5.50;;;;;;;9.90;69.80;103234.38;4944272;28;96874;-53
2022/01/23 10:20:11;;;;;;;5.77;5.10;;;;;;;9.93;69.98;103236.28;4946687;28;96931;-56
2022/01/23 10:22:40;;;;;;;7.17;6.10;;;;;;;9.95;70.04;103236.63;4944088;28;98155;-54
2022/01/23 10:25:10;;;;;;;7.47;5.90;;;;;;;9.98;69.80;103241.25;4941954;28;97504;-53
2022/01/23 10:28:05;;;;;;;7.67;6.33;;;;;;;9.96;69.74;103232.66;4947187;28;96822;-52
2022/01/23 10:30:38;;;;;;;7.50;6.60;;;;;;;10.00;70.03;103240.84;4942018;28;97939;-54
2022/01/23 10:33:08;;;;;;;13.07;8.30;;;;;;;10.03;69.96;103243.53;4942242;28;100767;-52
2022/01/23 10:35:53;;;;;;;9.87;8.07;;;;;;;10.03;69.94;103240.78;4943935;28;97171;-54
2022/01/23 10:38:20;;;;;;;11.83;8.40;;;;;;;10.08;70.04;103265.03;4942629;28;97254;-53
2022/01/23 10:40:55;;;;;;;11.77;8.00;;;;;;;10.07;69.98;103240.72;4945315;28;96958;-52
2022/01/23 10:48:45;;;;;;;7.37;5.97;;;;;;;10.09;69.94;103243.81;4945190;28;96979;-53
2022/01/23 10:51:22;;;;;;;7.60;6.70;;;;;;;10.13;69.87;103244.53;4943878;28;96862;-53
2022/01/23 10:54:00;;;;;;;7.63;6.07;;;;;;;10.14;69.89;103243.31;4941972;28;97453;-54
2022/01/23 10:56:28;;;;;;;7.30;5.73;;;;;;;10.11;69.93;103242.19;4947492;28;100216;-52
2022/01/23 10:58:57;;;;;;;7.73;6.40;;;;;;;10.13;69.95;103245.31;4945491;28;97107;-52
2022/01/23 11:01:24;;;;;;;8.30;6.50;;;;;;;10.16;69.96;103247.19;4940231;28;97436;-54
2022/01/23 11:04:10;;;;;;;15.20;6.53;;;;;;;10.20;70.15;103247.16;4943651;28;97354;-53
2022/01/23 11:07:01;;;;;;;8.00;5.60;;;;;;;10.19;70.06;103249.13;4946554;28;101891;-53
2022/01/23 11:09:37;;;;;;;7.17;6.00;;;;;;;10.19;69.99;103249.13;4942183;28;97354;-52
2022/01/23 11:12:14;;;;;;;8.07;6.53;;;;;;;10.22;69.99;103247.50;4943185;28;96857;-53
2022/01/23 11:17:27;;;;;;;7.30;6.27;;;;;;;10.27;69.91;103247.75;4941137;28;100023;-53
2022/01/23 11:19:58;;;;;;;9.07;6.50;;;;;;;10.30;69.95;103240.63;4943379;28;97251;-56
2022/01/23 11:22:30;;;;;;;9.47;8.10;;;;;;;10.33;69.91;103248.78;4944939;28;97284;-54
2022/01/23 11:24:59;;;;;;;10.97;7.53;;;;;;;10.35;69.92;103243.63;4944334;28;97339;-57
2022/01/23 11:27:32;;;;;;;11.23;7.17;;;;;;;10.39;69.83;103240.81;4944598;28;96761;-53
2022/01/23 11:30:11;;;;;;;9.73;7.97;;;;;;;10.40;69.95;103242.34;4946829;28;97184;-54
2022/01/23 11:32:41;;;;;;;9.03;7.30;;;;;;;10.40;69.91;103247.84;4942380;28;97130;-54
2022/01/23 11:35:19;;;;;;;6.80;5.70;;;;;;;10.40;69.94;103245.88;4940998;28;96972;-50
2022/01/23 11:37:50;;;;;;;12.83;8.07;;;;;;;10.43;69.92;103258.00;4942828;28;97439;-52
2022/01/23 11:50:39;;;;;;;9.53;7.57;;;;;;;10.47;69.99;103245.72;4944424;28;97533;-54
2022/01/23 11:54:44;;;;;;;7.10;5.80;;;;;;;10.56;69.90;103239.63;4946388;28;97844;-52
2022/01/23 11:57:35;;;;;;;8.60;5.90;;;;;;;10.60;69.77;103234.03;4940789;28;97143;-53
2022/01/23 12:00:07;;;;;;;7.07;5.93;;;;;;;10.63;69.75;103239.47;4940706;28;101957;-53
2022/01/23 12:02:39;;;;;;;8.13;5.47;;;;;;;10.68;69.66;103236.16;4946876;28;96908;-53
2022/01/23 12:07:40;;;;;;;6.27;5.37;;;;;;;10.72;69.58;103244.38;4941414;28;103445;-53
2022/01/23 12:10:25;;;;;;;6.03;5.50;;;;;;;10.71;69.76;103235.31;4945087;28;96924;-53
2022/01/23 12:13:21;;;;;;;6.33;5.73;;;;;;;10.72;69.80;103236.09;4945206;28;96980;-53
2022/01/23 12:18:40;;;;;;;6.80;5.67;;;;;;;10.79;69.75;103227.69;4940279;28;100645;-53
2022/01/23 12:21:29;;;;;;;9.80;6.97;;;;;;;10.81;69.70;103222.50;4942627;28;97085;-53
2022/01/23 12:24:04;;;;;;;8.27;6.47;;;;;;;10.79;69.89;103224.94;4941801;28;97054;-54
2022/01/23 12:26:31;;;;;;;7.47;5.93;;;;;;;10.78;69.75;103220.59;4942618;28;96898;-53
2022/01/23 12:29:11;;;;;;;6.40;5.70;;;;;;;10.77;69.65;103221.84;4944228;28;97825;-53
2022/01/23 12:31:39;;;;;;;8.60;6.97;;;;;;;10.77;69.77;103217.06;4942491;28;97062;-54
2022/01/23 12:34:05;;;;;;;9.70;7.50;;;;;;;10.82;69.88;103215.78;4944932;28;97297;-52
2022/01/23 12:36:43;;;;;;;9.13;7.50;;;;;;;10.85;69.56;103217.69;4943949;28;96989;-54
2022/01/23 12:39:09;;;;;;;13.43;9.17;;;;;;;10.78;69.71;103220.59;4943477;28;97450;-54
2022/01/23 12:41:56;;;;;;;12.33;8.43;;;;;;;10.82;69.82;103226.81;4937075;28;97144;-52
2022/01/23 12:44:28;;;;;;;11.23;8.40;;;;;;;10.85;69.80;103223.19;4942293;28;96961;-54
2022/01/23 12:47:00;;;;;;;8.70;7.60;;;;;;;10.86;69.82;103211.75;4941147;28;97212;-52
2022/01/23 12:49:34;;;;;;;9.07;6.70;;;;;;;10.85;69.78;103212.97;4942812;28;98004;-53
2022/01/23 12:52:09;;;;;;;6.57;5.07;;;;;;;10.84;69.91;103205.09;4942702;28;97178;-53
2022/01/23 12:54:48;;;;;;;7.63;5.20;;;;;;;10.89;69.95;103210.09;4943287;28;97138;-53
2022/01/23 12:57:17;;;;;;;6.60;5.20;;;;;;;10.90;69.89;103214.41;4944265;28;97322;-54
2022/01/23 12:59:51;;;;;;;5.50;4.90;;;;;;;10.92;69.84;103210.00;4945501;28;102268;-53
2022/01/23 13:02:19;;;;;;;5.17;4.73;;;;;;;10.93;69.87;103202.53;4936873;28;100103;-53
2022/01/23 13:04:51;;;;;;;6.20;5.40;;;;;;;10.95;69.89;103208.38;4945239;28;97040;-53
2022/01/23 13:07:43;;;;;;;5.03;4.63;;;;;;;10.97;69.76;103214.22;4942948;28;96974;-53
2022/01/23 13:10:36;;;;;;;6.43;5.67;;;;;;;10.97;69.76;103208.72;4938556;28;100795;-53
2022/01/23 13:13:35;;;;;;;5.60;5.10;;;;;;;10.95;69.72;103206.41;4941807;28;100263;-53
2022/01/23 13:32:30;;;;;;;4.77;4.10;;;;;;;11.10;69.75;103215.06;4941709;28;100588;-53
2022/01/23 13:35:04;;;;;;;3.73;3.43;;;;;;;11.13;69.74;103223.25;4943707;28;101606;-52
2022/01/23 13:37:39;;;;;;;5.27;4.43;;;;;;;11.16;69.87;103219.59;4941587;28;97141;-54
2022/01/23 13:40:13;;;;;;;4.60;4.20;;;;;;;11.18;69.53;103216.44;4939970;28;97473;-53
2022/01/23 14:02:16;;;;;;;4.10;3.80;;;;;;;11.16;69.62;103222.38;4941130;28;97654;-53
2022/01/23 14:04:53;;;;;;;3.60;3.30;;;;;;;11.19;69.69;103220.72;4941928;28;97373;-50
2022/01/23 14:07:24;;;;;;;4.30;3.90;;;;;;;11.19;69.65;103223.47;4939646;28;99919;-53
2022/01/23 14:09:52;;;;;;;7.17;4.33;;;;;;;11.19;69.62;103229.78;4940805;28;96691;-56
2022/01/23 14:12:22;;;;;;;3.97;3.67;;;;;;;11.21;69.54;103230.13;4938783;28;99137;-49
2022/01/23 14:14:54;;;;;;;4.30;3.90;;;;;;;11.20;69.51;103227.81;4933204;28;98033;-53
2022/01/23 14:17:22;;;;;;;6.30;4.37;;;;;;;11.18;69.69;103235.72;4941508;28;96788;-52
2022/01/23 14:20:08;;;;;;;4.93;3.77;;;;;;;11.17;69.64;103231.41;4944111;28;96923;-53
2022/01/23 14:22:41;;;;;;;7.40;4.33;;;;;;;11.17;69.66;103232.19;4943962;28;97361;-52
2022/01/23 14:25:20;;;;;;;7.00;5.03;;;;;;;11.17;69.73;103220.38;4943381;28;102290;-52
2022/01/23 14:28:05;;;;;;;9.40;6.00;;;;;;;11.16;69.58;103235.38;4941989;28;100288;-53
2022/01/23 14:30:31;;;;;;;7.27;6.00;;;;;;;11.15;69.76;103233.84;4932522;28;96895;-53
2022/01/23 14:33:06;;;;;;;4.50;4.10;;;;;;;11.12;69.55;103234.69;4946761;28;96834;-53
2022/01/23 14:35:34;;;;;;;5.43;4.20;;;;;;;11.10;69.82;103226.84;4941520;28;96649;-53
2022/01/23 14:38:15;;;;;;;4.70;4.30;;;;;;;11.10;69.69;103229.63;4946393;28;96877;-53
2022/01/23 14:41:09;;;;;;;5.87;5.23;;;;;;;11.10;69.68;103231.59;4942139;28;96837;-54
2022/01/23 14:43:38;;;;;;;6.83;5.47;;;;;;;11.10;69.63;103228.84;4944224;28;97099;-52
2022/01/23 14:46:06;;;;;;;9.70;6.10;;;;;;;11.09;69.72;103236.34;4939140;28;96958;-52
2022/01/23 14:48:39;;;;;;;7.20;6.33;;;;;;;11.10;69.79;103224.09;4944952;28;97429;-53
2022/01/23 14:51:06;;;;;;;9.50;6.00;;;;;;;11.11;69.58;103238.66;4943840;28;97068;-53
2022/01/23 14:53:36;;;;;;;5.93;5.20;;;;;;;11.09;69.61;103239.09;4946240;28;97024;-53
2022/01/23 14:56:05;;;;;;;6.30;5.37;;;;;;;11.10;69.63;103237.09;4944161;28;102009;-53
2022/01/23 14:58:34;;;;;;;6.97;6.27;;;;;;;11.08;69.60;103237.53;4943976;28;96909;-53
2022/01/23 15:01:02;;;;;;;5.70;5.13;;;;;;;11.08;69.68;103237.53;4947435;28;97156;-53
2022/01/23 15:03:30;;;;;;;5.73;5.23;;;;;;;11.09;69.71;103238.31;4945647;28;97984;-53
2022/01/23 15:05:56;;;;;;;5.20;4.70;;;;;;;11.08;69.58;103236.75;4947157;28;97188;-52
2022/01/23 15:08:24;;;;;;;6.07;4.83;;;;;;;11.01;69.52;103243.22;4943583;28;97411;-52
2022/01/23 15:10:53;;;;;;;4.83;4.40;;;;;;;10.97;69.81;103247.28;4946951;28;97042;-52
2022/01/23 15:13:21;;;;;;;5.93;5.33;;;;;;;10.96;69.98;103252.03;4947776;28;96837;-53